createdAt,value
2022-07-30T00:00:52.735Z,0
2022-07-30T00:01:52.696Z,0
2022-07-30T00:02:52.696Z,0
2022-07-30T00:03:52.734Z,0
2022-07-30T00:04:52.696Z,0
2022-07-30T00:05:52.694Z,0
2022-07-30T00:06:52.705Z,0
2022-07-30T00:07:52.699Z,0
2022-07-30T00:08:52.692Z,7
2022-07-30T00:09:52.700Z,2.1
2022-07-30T00:10:52.700Z,0
2022-07-30T00:11:52.696Z,0
2022-07-30T00:12:52.705Z,0
2022-07-30T00:13:52.704Z,7.2
2022-07-30T00:14:52.711Z,4.2
2022-07-30T00:15:52.704Z,6
2022-07-30T00:16:52.749Z,1.7000000000000002
2022-07-30T00:17:52.716Z,0
2022-07-30T00:18:52.711Z,0
2022-07-30T00:19:52.709Z,0
2022-07-30T00:20:52.711Z,0
2022-07-30T00:21:52.718Z,0
2022-07-30T00:22:52.709Z,0
2022-07-30T00:24:01.720Z,0
2022-07-30T00:24:52.716Z,0
2022-07-30T00:25:52.717Z,6.300000000000001
2022-07-30T00:26:52.713Z,4
2022-07-30T00:27:52.722Z,5.300000000000001
2022-07-30T00:28:52.727Z,1.7000000000000002
2022-07-30T00:29:52.724Z,0
2022-07-30T00:30:54.953Z,0
2022-07-30T00:31:52.720Z,0
2022-07-30T00:32:52.725Z,0
2022-07-30T00:33:52.726Z,0
2022-07-30T00:34:52.719Z,0
2022-07-30T00:35:52.725Z,0
2022-07-30T00:36:52.740Z,0
2022-07-30T00:37:52.733Z,0
2022-07-30T00:38:52.732Z,0
2022-07-30T00:39:52.727Z,0
2022-07-30T00:40:52.734Z,0
2022-07-30T00:41:52.737Z,0
2022-07-30T00:42:52.731Z,0
2022-07-30T00:43:52.735Z,0
2022-07-30T00:44:52.736Z,0
2022-07-30T00:45:52.787Z,0
2022-07-30T00:46:52.737Z,5.5
2022-07-30T00:47:52.733Z,1.4000000000000001
2022-07-30T00:48:52.787Z,1.9000000000000001
2022-07-30T00:49:52.745Z,1.2000000000000002
2022-07-30T00:50:52.748Z,0
2022-07-30T00:51:52.741Z,0
2022-07-30T00:52:52.748Z,2.7
2022-07-30T00:53:52.750Z,4.800000000000001
2022-07-30T00:54:52.745Z,1.7000000000000002
2022-07-30T00:55:52.746Z,2
2022-07-30T00:56:52.751Z,0
2022-07-30T00:57:52.747Z,0
2022-07-30T00:58:52.747Z,0
2022-07-30T00:59:52.750Z,0
2022-07-30T01:00:52.786Z,0
2022-07-30T01:01:52.776Z,0
2022-07-30T01:02:52.760Z,0
2022-07-30T01:03:52.749Z,0
2022-07-30T01:04:52.842Z,0
2022-07-30T01:05:52.764Z,0
2022-07-30T01:06:52.758Z,0
2022-07-30T01:07:52.757Z,0
2022-07-30T01:08:52.758Z,0
2022-07-30T01:09:52.752Z,0
2022-07-30T01:10:52.761Z,0
2022-07-30T01:11:52.764Z,0
2022-07-30T01:12:52.772Z,0
2022-07-30T01:13:52.752Z,0
2022-07-30T01:14:52.766Z,0
2022-07-30T01:15:52.771Z,0
2022-07-30T01:16:52.804Z,0
2022-07-30T01:17:53.162Z,0
2022-07-30T01:18:52.761Z,0
2022-07-30T01:19:52.761Z,0
2022-07-30T01:20:52.778Z,0
2022-07-30T01:21:52.770Z,0
2022-07-30T01:22:52.770Z,0
2022-07-30T01:23:52.768Z,0
2022-07-30T01:24:52.777Z,0
2022-07-30T01:25:52.777Z,0
2022-07-30T01:26:52.781Z,0
2022-07-30T01:27:52.777Z,0
2022-07-30T01:28:52.783Z,0
2022-07-30T01:29:52.780Z,0
2022-07-30T01:30:52.783Z,0
2022-07-30T01:31:52.858Z,0
2022-07-30T01:32:52.793Z,0
2022-07-30T01:33:52.799Z,0
2022-07-30T01:34:52.801Z,0
2022-07-30T01:35:52.794Z,3.6
2022-07-30T01:36:52.798Z,4.9
2022-07-30T01:37:52.789Z,5.5
2022-07-30T01:38:52.795Z,4.7
2022-07-30T01:39:52.797Z,5.5
2022-07-30T01:40:52.802Z,6.1000000000000005
2022-07-30T01:41:52.802Z,5.9
2022-07-30T01:42:52.797Z,4.5
2022-07-30T01:43:52.806Z,0
2022-07-30T01:44:52.801Z,2
2022-07-30T01:45:52.869Z,5.5
2022-07-30T01:46:52.799Z,3.4000000000000004
2022-07-30T01:47:52.799Z,2.4000000000000004
2022-07-30T01:48:52.845Z,0.6000000000000001
2022-07-30T01:49:52.811Z,0
2022-07-30T01:50:52.803Z,0
2022-07-30T01:51:52.813Z,0
2022-07-30T01:52:52.804Z,0
2022-07-30T01:53:52.802Z,0
2022-07-30T01:54:52.806Z,0
2022-07-30T01:55:52.804Z,0
2022-07-30T01:56:52.807Z,0
2022-07-30T01:57:52.813Z,0
2022-07-30T01:58:52.805Z,0
2022-07-30T01:59:52.819Z,0
2022-07-30T02:00:52.867Z,0
2022-07-30T02:01:52.820Z,0
2022-07-30T02:02:52.830Z,0
2022-07-30T02:03:52.873Z,0
2022-07-30T02:04:52.813Z,0
2022-07-30T02:05:52.830Z,0
2022-07-30T02:06:52.813Z,0
2022-07-30T02:07:52.819Z,0
2022-07-30T02:08:52.823Z,0
2022-07-30T02:09:52.830Z,0
2022-07-30T02:10:52.826Z,0
2022-07-30T02:11:52.833Z,0
2022-07-30T02:12:52.830Z,0
2022-07-30T02:13:52.833Z,0
2022-07-30T02:14:52.837Z,0
2022-07-30T02:15:52.830Z,0
2022-07-30T02:16:52.843Z,0
2022-07-30T02:17:52.830Z,0
2022-07-30T02:18:52.835Z,0
2022-07-30T02:19:52.829Z,0
2022-07-30T02:20:52.838Z,0
2022-07-30T02:21:52.838Z,0
2022-07-30T02:22:52.836Z,0
2022-07-30T02:23:52.832Z,0
2022-07-30T02:24:52.842Z,0
2022-07-30T02:25:52.841Z,0
2022-07-30T02:26:52.824Z,0
2022-07-30T02:27:52.836Z,0
2022-07-30T02:28:52.837Z,0
2022-07-30T02:29:52.840Z,0
2022-07-30T02:30:52.839Z,0
2022-07-30T02:31:52.863Z,0
2022-07-30T02:32:52.837Z,0
2022-07-30T02:33:52.846Z,0
2022-07-30T02:34:52.841Z,0
2022-07-30T02:35:52.840Z,0
2022-07-30T02:36:52.841Z,0
2022-07-30T02:37:52.844Z,0
2022-07-30T02:38:52.843Z,0
2022-07-30T02:39:52.840Z,0
2022-07-30T02:40:52.844Z,0
2022-07-30T02:41:52.847Z,0
2022-07-30T02:42:52.846Z,0
2022-07-30T02:43:52.845Z,0
2022-07-30T02:44:52.857Z,0
2022-07-30T02:45:52.841Z,0
2022-07-30T02:46:52.890Z,0
2022-07-30T02:47:52.848Z,0
2022-07-30T02:48:52.889Z,0
2022-07-30T02:49:52.849Z,0
2022-07-30T02:50:52.848Z,0
2022-07-30T02:51:52.850Z,0
2022-07-30T02:52:52.865Z,0
2022-07-30T02:53:52.851Z,0
2022-07-30T02:54:52.860Z,0
2022-07-30T02:55:52.847Z,0
2022-07-30T02:56:52.852Z,0
2022-07-30T02:57:52.852Z,0
2022-07-30T02:58:52.856Z,0
2022-07-30T02:59:52.869Z,0
2022-07-30T03:00:52.884Z,0
2022-07-30T03:01:52.894Z,0
2022-07-30T03:02:56.604Z,0
2022-07-30T03:03:52.850Z,0
2022-07-30T03:04:52.856Z,0
2022-07-30T03:05:52.858Z,0
2022-07-30T03:06:52.856Z,0
2022-07-30T03:07:52.856Z,0
2022-07-30T03:08:52.863Z,0
2022-07-30T03:09:52.856Z,0
2022-07-30T03:10:52.863Z,0
2022-07-30T03:11:52.866Z,0
2022-07-30T03:12:52.868Z,0
2022-07-30T03:13:52.859Z,0
2022-07-30T03:14:52.868Z,0
2022-07-30T03:15:52.999Z,0
2022-07-30T03:16:52.867Z,0
2022-07-30T03:17:52.876Z,0
2022-07-30T03:18:52.868Z,0
2022-07-30T03:19:52.876Z,0
2022-07-30T03:20:52.871Z,0
2022-07-30T03:21:52.859Z,0
2022-07-30T03:22:52.867Z,0
2022-07-30T03:23:52.870Z,0
2022-07-30T03:24:52.870Z,0
2022-07-30T03:25:53.195Z,0
2022-07-30T03:26:52.868Z,0
2022-07-30T03:27:52.872Z,0
2022-07-30T03:28:52.867Z,0
2022-07-30T03:29:52.878Z,0
2022-07-30T03:30:52.918Z,0
2022-07-30T03:31:52.927Z,0
2022-07-30T03:32:52.870Z,0
2022-07-30T03:33:52.866Z,0
2022-07-30T03:34:52.875Z,0
2022-07-30T03:35:52.868Z,0
2022-07-30T03:36:52.863Z,0
2022-07-30T03:37:52.872Z,0
2022-07-30T03:38:52.870Z,0
2022-07-30T03:39:52.869Z,0
2022-07-30T03:40:52.871Z,0
2022-07-30T03:41:52.877Z,0
2022-07-30T03:42:52.865Z,0
2022-07-30T03:43:52.880Z,0
2022-07-30T03:44:52.873Z,0
2022-07-30T03:45:52.881Z,0
2022-07-30T03:46:52.903Z,0
2022-07-30T03:47:52.868Z,0
2022-07-30T03:48:52.970Z,0
2022-07-30T03:49:52.875Z,0
2022-07-30T03:50:52.879Z,0
2022-07-30T03:51:52.873Z,0
2022-07-30T03:52:52.870Z,0
2022-07-30T03:53:52.883Z,0
2022-07-30T03:54:52.889Z,0
2022-07-30T03:55:52.888Z,0
2022-07-30T03:56:52.880Z,0
2022-07-30T03:57:52.889Z,0
2022-07-30T03:58:52.890Z,0
2022-07-30T03:59:52.896Z,0
2022-07-30T04:00:52.892Z,0
2022-07-30T04:01:52.971Z,0
2022-07-30T04:02:52.902Z,0
2022-07-30T04:03:53.035Z,0
2022-07-30T04:04:52.905Z,0
2022-07-30T04:05:52.898Z,0
2022-07-30T04:06:52.896Z,0
2022-07-30T04:07:52.898Z,0
2022-07-30T04:08:52.901Z,0
2022-07-30T04:09:52.913Z,0
2022-07-30T04:10:52.903Z,4.9
2022-07-30T04:11:52.901Z,6.2
2022-07-30T04:12:52.907Z,0
2022-07-30T04:13:52.901Z,0
2022-07-30T04:14:52.908Z,0
2022-07-30T04:16:05.796Z,0
2022-07-30T04:16:52.959Z,0
2022-07-30T04:17:52.914Z,0
2022-07-30T04:18:52.913Z,0
2022-07-30T04:19:52.911Z,4.3
2022-07-30T04:20:52.910Z,1.8
2022-07-30T04:21:52.912Z,1.5
2022-07-30T04:22:52.913Z,3.1
2022-07-30T04:24:02.083Z,0
2022-07-30T04:24:52.916Z,0
2022-07-30T04:25:52.925Z,0
2022-07-30T04:26:52.926Z,0
2022-07-30T04:27:58.380Z,0
2022-07-30T04:28:52.926Z,0
2022-07-30T04:29:52.917Z,0
2022-07-30T04:30:52.984Z,0
2022-07-30T04:31:52.940Z,0
2022-07-30T04:32:52.926Z,0
2022-07-30T04:33:52.932Z,0
2022-07-30T04:34:52.924Z,0
2022-07-30T04:35:52.924Z,0
2022-07-30T04:36:52.934Z,0
2022-07-30T04:37:52.929Z,0
2022-07-30T04:38:52.942Z,0
2022-07-30T04:39:52.935Z,0
2022-07-30T04:40:52.944Z,0
2022-07-30T04:41:52.939Z,0
2022-07-30T04:42:52.942Z,0
2022-07-30T04:43:52.943Z,0
2022-07-30T04:44:52.941Z,0
2022-07-30T04:45:52.944Z,0
2022-07-30T04:46:53.009Z,0
2022-07-30T04:47:52.948Z,0
2022-07-30T04:48:52.979Z,0
2022-07-30T04:49:52.949Z,0
2022-07-30T04:50:52.946Z,0
2022-07-30T04:51:52.952Z,0
2022-07-30T04:52:52.963Z,0
2022-07-30T04:53:52.958Z,0
2022-07-30T04:54:52.948Z,0
2022-07-30T04:55:52.959Z,0
2022-07-30T04:56:53.851Z,0
2022-07-30T04:57:52.959Z,0
2022-07-30T04:58:52.964Z,0
2022-07-30T04:59:52.959Z,0
2022-07-30T05:00:52.978Z,0
2022-07-30T05:01:53.011Z,0
2022-07-30T05:02:52.963Z,0
2022-07-30T05:03:52.978Z,0
2022-07-30T05:04:53.031Z,0
2022-07-30T05:05:56.885Z,0
2022-07-30T05:06:52.977Z,0
2022-07-30T05:07:52.971Z,0
2022-07-30T05:08:52.988Z,0
2022-07-30T05:09:52.974Z,0
2022-07-30T05:10:53.230Z,0
2022-07-30T05:11:52.998Z,0
2022-07-30T05:12:52.994Z,0
2022-07-30T05:13:52.986Z,0
2022-07-30T05:14:52.983Z,0
2022-07-30T05:15:53.018Z,0
2022-07-30T05:16:52.993Z,0
2022-07-30T05:17:52.996Z,0
2022-07-30T05:18:52.981Z,0
2022-07-30T05:19:52.992Z,0
2022-07-30T05:20:52.992Z,0
2022-07-30T05:21:53.020Z,0
2022-07-30T05:22:52.992Z,0
2022-07-30T05:23:52.994Z,0
2022-07-30T05:24:53.014Z,0
2022-07-30T05:25:53.026Z,0
2022-07-30T05:26:52.999Z,0
2022-07-30T05:27:53.003Z,0
2022-07-30T05:28:55.090Z,0
2022-07-30T05:29:53.008Z,0
2022-07-30T05:30:53.092Z,0
2022-07-30T05:31:53.006Z,0
2022-07-30T05:32:53.009Z,0
2022-07-30T05:33:53.022Z,0
2022-07-30T05:34:53.024Z,0
2022-07-30T05:35:53.010Z,0
2022-07-30T05:36:53.012Z,0
2022-07-30T05:37:53.026Z,0
2022-07-30T05:38:53.019Z,0
2022-07-30T05:39:57.148Z,0
2022-07-30T05:40:53.014Z,0
2022-07-30T05:41:53.028Z,0
2022-07-30T05:42:53.026Z,0
2022-07-30T05:43:55.716Z,0
2022-07-30T05:44:53.031Z,0
2022-07-30T05:45:53.056Z,0
2022-07-30T05:46:53.029Z,0
2022-07-30T05:47:53.029Z,0
2022-07-30T05:48:53.090Z,0
2022-07-30T05:49:53.039Z,0
2022-07-30T05:50:53.029Z,0
2022-07-30T05:51:53.036Z,0
2022-07-30T05:52:53.037Z,0
2022-07-30T05:53:53.042Z,0
2022-07-30T05:54:53.035Z,0
2022-07-30T05:55:53.035Z,0
2022-07-30T05:56:53.044Z,0
2022-07-30T05:57:53.043Z,0
2022-07-30T05:58:53.046Z,0
2022-07-30T05:59:53.056Z,0
2022-07-30T06:00:53.040Z,0
2022-07-30T06:01:53.079Z,0
2022-07-30T06:02:53.039Z,0
2022-07-30T06:03:53.054Z,0
2022-07-30T06:04:53.100Z,0
2022-07-30T06:05:53.051Z,0
2022-07-30T06:06:53.048Z,0
2022-07-30T06:07:53.048Z,0
2022-07-30T06:08:53.046Z,0
2022-07-30T06:09:53.057Z,0
2022-07-30T06:10:53.057Z,0
2022-07-30T06:11:53.051Z,0
2022-07-30T06:12:53.045Z,0
2022-07-30T06:13:53.055Z,0
2022-07-30T06:14:53.057Z,0
2022-07-30T06:15:53.089Z,0
2022-07-30T06:16:53.054Z,0
2022-07-30T06:17:57.128Z,0
2022-07-30T06:18:53.063Z,0
2022-07-30T06:19:53.064Z,0
2022-07-30T06:20:53.071Z,0
2022-07-30T06:21:59.801Z,0
2022-07-30T06:22:53.070Z,0
2022-07-30T06:23:53.071Z,0
2022-07-30T06:24:53.070Z,0
2022-07-30T06:25:53.071Z,0
2022-07-30T06:26:53.070Z,0
2022-07-30T06:27:53.085Z,0
2022-07-30T06:28:53.070Z,0
2022-07-30T06:29:53.088Z,0
2022-07-30T06:30:53.106Z,0
2022-07-30T06:31:53.079Z,0
2022-07-30T06:32:53.076Z,0
2022-07-30T06:33:53.093Z,0
2022-07-30T06:34:59.779Z,0
2022-07-30T06:35:53.083Z,0
2022-07-30T06:36:53.074Z,0
2022-07-30T06:38:00.610Z,0
2022-07-30T06:38:53.082Z,0
2022-07-30T06:39:57.284Z,0
2022-07-30T06:40:53.088Z,0
2022-07-30T06:41:53.089Z,0
2022-07-30T06:42:53.094Z,0
2022-07-30T06:43:53.091Z,0
2022-07-30T06:44:53.100Z,0
2022-07-30T06:45:53.149Z,0
2022-07-30T06:46:53.093Z,0
2022-07-30T06:47:53.097Z,0
2022-07-30T06:48:53.151Z,0
2022-07-30T06:49:53.101Z,0
2022-07-30T06:50:53.089Z,0
2022-07-30T06:51:53.095Z,0
2022-07-30T06:52:53.093Z,0
2022-07-30T06:53:53.100Z,0
2022-07-30T06:54:53.103Z,0
2022-07-30T06:55:57.590Z,0
2022-07-30T06:56:53.095Z,0
2022-07-30T06:57:53.098Z,0
2022-07-30T06:58:53.101Z,0
2022-07-30T06:59:55.884Z,0
2022-07-30T07:00:53.103Z,0
2022-07-30T07:01:53.130Z,0
2022-07-30T07:02:53.100Z,0
2022-07-30T07:03:53.111Z,0
2022-07-30T07:04:53.114Z,0
2022-07-30T07:05:53.113Z,0
2022-07-30T07:06:53.107Z,0
2022-07-30T07:07:59.038Z,0
2022-07-30T07:08:53.113Z,0
2022-07-30T07:09:53.108Z,0
2022-07-30T07:10:53.111Z,0
2022-07-30T07:11:53.108Z,0
2022-07-30T07:12:53.113Z,0
2022-07-30T07:13:53.151Z,0
2022-07-30T07:14:53.117Z,0
2022-07-30T07:15:53.117Z,0
2022-07-30T07:16:53.123Z,0
2022-07-30T07:17:53.114Z,0
2022-07-30T07:18:53.115Z,0
2022-07-30T07:19:59.352Z,0
2022-07-30T07:20:53.125Z,0
2022-07-30T07:21:53.128Z,0
2022-07-30T07:22:53.118Z,0
2022-07-30T07:23:53.117Z,0
2022-07-30T07:24:53.123Z,0
2022-07-30T07:25:53.125Z,0
2022-07-30T07:26:53.123Z,0
2022-07-30T07:28:11.407Z,0
2022-07-30T07:28:53.122Z,0
2022-07-30T07:30:01.040Z,0
2022-07-30T07:30:53.170Z,0
2022-07-30T07:32:02.873Z,0
2022-07-30T07:32:53.130Z,0
2022-07-30T07:33:53.134Z,0
2022-07-30T07:34:53.132Z,0
2022-07-30T07:35:53.129Z,0
2022-07-30T07:36:53.124Z,0
2022-07-30T07:37:53.128Z,0
2022-07-30T07:38:53.141Z,0
2022-07-30T07:39:53.149Z,0
2022-07-30T07:40:53.147Z,0
2022-07-30T07:41:53.132Z,0
2022-07-30T07:42:53.135Z,0
2022-07-30T07:43:53.131Z,0
2022-07-30T07:44:53.141Z,0
2022-07-30T07:45:53.186Z,0
2022-07-30T07:46:53.133Z,0
2022-07-30T07:47:53.539Z,0
2022-07-30T07:48:53.171Z,0
2022-07-30T07:49:53.131Z,0
2022-07-30T07:50:55.944Z,0
2022-07-30T07:51:53.125Z,0
2022-07-30T07:52:53.138Z,0
2022-07-30T07:54:11.860Z,0
2022-07-30T07:54:53.127Z,0
2022-07-30T07:55:53.129Z,0
2022-07-30T07:56:53.454Z,0
2022-07-30T07:57:53.134Z,0
2022-07-30T07:58:56.545Z,0
2022-07-30T07:59:53.133Z,0
2022-07-30T08:00:53.164Z,0
2022-07-30T08:01:53.138Z,0
2022-07-30T08:02:53.221Z,0
2022-07-30T08:03:53.135Z,0
2022-07-30T08:04:53.124Z,0
2022-07-30T08:05:53.998Z,0
2022-07-30T08:06:53.145Z,0
2022-07-30T08:07:53.141Z,0
2022-07-30T08:08:53.144Z,0
2022-07-30T08:09:53.150Z,0
2022-07-30T08:10:53.141Z,0
2022-07-30T08:11:53.149Z,0
2022-07-30T08:12:53.155Z,0
2022-07-30T08:13:53.313Z,0
2022-07-30T08:14:53.156Z,0
2022-07-30T08:15:53.161Z,0
2022-07-30T08:16:53.170Z,0
2022-07-30T08:17:53.159Z,0
2022-07-30T08:18:53.157Z,0
2022-07-30T08:19:53.158Z,0
2022-07-30T08:20:53.165Z,0
2022-07-30T08:21:53.155Z,0
2022-07-30T08:22:53.162Z,0
2022-07-30T08:23:53.159Z,0
2022-07-30T08:24:53.160Z,0
2022-07-30T08:25:53.157Z,0
2022-07-30T08:26:53.164Z,0
2022-07-30T08:27:53.326Z,0
2022-07-30T08:28:54.512Z,0
2022-07-30T08:29:53.165Z,0
2022-07-30T08:30:53.167Z,0
2022-07-30T08:31:53.155Z,0
2022-07-30T08:32:53.160Z,0
2022-07-30T08:33:53.166Z,0
2022-07-30T08:34:53.166Z,0
2022-07-30T08:35:54.955Z,0
2022-07-30T08:36:53.182Z,0
2022-07-30T08:37:53.169Z,0
2022-07-30T08:38:53.178Z,0
2022-07-30T08:39:53.187Z,0
2022-07-30T08:40:53.186Z,0
2022-07-30T08:41:53.182Z,0
2022-07-30T08:42:53.178Z,0
2022-07-30T08:43:53.178Z,0
2022-07-30T08:44:53.186Z,0
2022-07-30T08:45:53.206Z,0
2022-07-30T08:46:53.190Z,0
2022-07-30T08:47:53.181Z,0
2022-07-30T08:48:53.211Z,0
2022-07-30T08:49:53.187Z,0
2022-07-30T08:50:53.194Z,0
2022-07-30T08:51:53.201Z,0
2022-07-30T08:52:53.196Z,0
2022-07-30T08:53:53.196Z,0
2022-07-30T08:54:53.200Z,0
2022-07-30T08:55:56.889Z,0
2022-07-30T08:56:53.202Z,0
2022-07-30T08:57:53.200Z,0
2022-07-30T08:58:53.205Z,0
2022-07-30T08:59:59.749Z,0
2022-07-30T09:00:53.231Z,0
2022-07-30T09:01:53.211Z,0
2022-07-30T09:02:53.211Z,0
2022-07-30T09:03:53.250Z,0
2022-07-30T09:04:53.211Z,0
2022-07-30T09:05:53.219Z,0
2022-07-30T09:06:53.220Z,0
2022-07-30T09:07:53.212Z,0
2022-07-30T09:08:53.223Z,0
2022-07-30T09:09:53.226Z,0
2022-07-30T09:10:53.638Z,0
2022-07-30T09:11:53.222Z,0
2022-07-30T09:12:53.225Z,0
2022-07-30T09:13:53.231Z,0
2022-07-30T09:14:53.228Z,0
2022-07-30T09:15:53.229Z,0
2022-07-30T09:16:53.227Z,0
2022-07-30T09:17:53.256Z,0
2022-07-30T09:18:53.229Z,0
2022-07-30T09:19:53.227Z,0
2022-07-30T09:20:53.230Z,0
2022-07-30T09:21:53.228Z,0
2022-07-30T09:22:53.235Z,0
2022-07-30T09:23:53.234Z,0
2022-07-30T09:24:53.234Z,0
2022-07-30T09:25:53.234Z,0
2022-07-30T09:26:53.231Z,0
2022-07-30T09:27:53.237Z,0
2022-07-30T09:28:53.237Z,0
2022-07-30T09:29:53.239Z,0
2022-07-30T09:30:53.230Z,0
2022-07-30T09:31:53.246Z,0
2022-07-30T09:32:53.245Z,0
2022-07-30T09:33:53.242Z,0
2022-07-30T09:34:53.252Z,0
2022-07-30T09:35:53.242Z,0
2022-07-30T09:36:53.240Z,0
2022-07-30T09:37:53.246Z,0
2022-07-30T09:38:53.251Z,0
2022-07-30T09:39:56.702Z,0
2022-07-30T09:40:57.430Z,0
2022-07-30T09:41:53.256Z,0
2022-07-30T09:42:53.249Z,0
2022-07-30T09:43:53.250Z,0
2022-07-30T09:44:53.253Z,0
2022-07-30T09:45:56.630Z,0
2022-07-30T09:46:53.256Z,0
2022-07-30T09:47:53.259Z,0
2022-07-30T09:48:53.308Z,6
2022-07-30T09:49:53.260Z,6.9
2022-07-30T09:50:53.260Z,7.1000000000000005
2022-07-30T09:51:54.801Z,7.7
2022-07-30T09:52:53.256Z,7.1000000000000005
2022-07-30T09:53:53.262Z,5.5
2022-07-30T09:54:53.282Z,4.7
2022-07-30T09:55:53.267Z,3.6
2022-07-30T09:56:53.587Z,3
2022-07-30T09:57:56.550Z,5
2022-07-30T09:58:53.268Z,2.2
2022-07-30T09:59:53.265Z,6.5
2022-07-30T10:01:54.656Z,5
2022-07-30T10:02:53.270Z,4.5
2022-07-30T10:03:53.269Z,2.6
2022-07-30T10:04:53.263Z,3.4000000000000004
2022-07-30T10:05:53.270Z,10.5
2022-07-30T10:06:53.269Z,16.900000000000002
2022-07-30T10:07:53.283Z,22.6
2022-07-30T10:08:53.272Z,5.2
2022-07-30T10:09:53.290Z,7.300000000000001
2022-07-30T10:10:53.271Z,7.6000000000000005
2022-07-30T10:11:53.274Z,2.4000000000000004
2022-07-30T10:12:53.272Z,2.9000000000000004
2022-07-30T10:13:53.273Z,9.5
2022-07-30T10:14:53.276Z,15.8
2022-07-30T10:15:53.276Z,9.5
2022-07-30T10:16:53.280Z,8.5
2022-07-30T10:17:53.286Z,9.700000000000001
2022-07-30T10:18:53.288Z,6.1000000000000005
2022-07-30T10:19:53.274Z,9.9
2022-07-30T10:20:53.280Z,13.100000000000001
2022-07-30T10:21:53.280Z,17.7
2022-07-30T10:22:53.297Z,15.600000000000001
2022-07-30T10:23:53.288Z,15.600000000000001
2022-07-30T10:24:53.281Z,12.700000000000001
2022-07-30T10:25:55.292Z,11
2022-07-30T10:26:53.284Z,8.8
2022-07-30T10:27:57.246Z,10.100000000000001
2022-07-30T10:28:53.296Z,12.200000000000001
2022-07-30T10:29:53.286Z,8.1
2022-07-30T10:30:53.291Z,8.8
2022-07-30T10:31:54.315Z,4.9
2022-07-30T10:32:53.279Z,1.3
2022-07-30T10:33:53.281Z,6.5
2022-07-30T10:34:53.274Z,1.1
2022-07-30T10:35:54.237Z,4
2022-07-30T10:36:53.279Z,6
2022-07-30T10:37:53.284Z,3.3000000000000003
2022-07-30T10:38:53.288Z,1
2022-07-30T10:39:53.285Z,2.9000000000000004
2022-07-30T10:40:53.291Z,1.7000000000000002
2022-07-30T10:41:54.067Z,6.300000000000001
2022-07-30T10:42:53.291Z,6.5
2022-07-30T10:43:53.297Z,5.6000000000000005
2022-07-30T10:44:53.292Z,4.800000000000001
2022-07-30T10:45:53.301Z,5.2
2022-07-30T10:46:53.298Z,11.600000000000001
2022-07-30T10:47:53.292Z,15.3
2022-07-30T10:48:53.319Z,8.700000000000001
2022-07-30T10:49:53.294Z,12.200000000000001
2022-07-30T10:50:53.296Z,6.7
2022-07-30T10:51:53.305Z,15.200000000000001
2022-07-30T10:52:53.298Z,8.8
2022-07-30T10:53:53.297Z,9.700000000000001
2022-07-30T10:54:53.295Z,5.5
2022-07-30T10:55:53.293Z,15.5
2022-07-30T10:56:53.295Z,19.400000000000002
2022-07-30T10:57:53.299Z,8.1
2022-07-30T10:58:53.305Z,6.4
2022-07-30T10:59:53.296Z,11.3
2022-07-30T11:00:53.305Z,14.4
2022-07-30T11:01:53.740Z,8.3
2022-07-30T11:02:53.299Z,3.3000000000000003
2022-07-30T11:03:53.309Z,5.9
2022-07-30T11:04:53.309Z,4.4
2022-07-30T11:05:53.300Z,8
2022-07-30T11:06:53.300Z,6.1000000000000005
2022-07-30T11:07:53.312Z,1.5
2022-07-30T11:08:57.088Z,0
2022-07-30T11:10:05.669Z,0
2022-07-30T11:10:53.309Z,0
2022-07-30T11:11:59.738Z,5.6000000000000005
2022-07-30T11:12:53.320Z,3.3000000000000003
2022-07-30T11:13:53.430Z,2.8000000000000003
2022-07-30T11:14:53.314Z,2.6
2022-07-30T11:15:53.312Z,4.6000000000000005
2022-07-30T11:16:53.317Z,3.8000000000000003
2022-07-30T11:17:53.314Z,3.3000000000000003
2022-07-30T11:19:02.345Z,6.300000000000001
2022-07-30T11:19:59.183Z,2.1
2022-07-30T11:20:53.321Z,5.4
2022-07-30T11:21:53.324Z,4.5
2022-07-30T11:22:53.313Z,8.8
2022-07-30T11:23:54.892Z,7.2
2022-07-30T11:24:53.329Z,2.8000000000000003
2022-07-30T11:25:54.646Z,3.9000000000000004
2022-07-30T11:26:53.326Z,5.1000000000000005
2022-07-30T11:27:53.327Z,4
2022-07-30T11:28:53.322Z,7.6000000000000005
2022-07-30T11:29:53.322Z,3.3000000000000003
2022-07-30T11:30:53.326Z,6
2022-07-30T11:31:56.710Z,5.300000000000001
2022-07-30T11:32:53.330Z,1.2000000000000002
2022-07-30T11:33:53.323Z,1.9000000000000001
2022-07-30T11:34:53.330Z,2.2
2022-07-30T11:35:53.326Z,1.2000000000000002
2022-07-30T11:36:53.327Z,4
2022-07-30T11:37:53.333Z,9.1
2022-07-30T11:38:53.329Z,4
2022-07-30T11:39:53.332Z,3
2022-07-30T11:40:53.326Z,1.6
2022-07-30T11:41:53.335Z,0
2022-07-30T11:42:53.334Z,6.9
2022-07-30T11:43:53.325Z,7.4
2022-07-30T11:44:53.330Z,3.5
2022-07-30T11:45:53.332Z,8.4
2022-07-30T11:46:53.340Z,10.100000000000001
2022-07-30T11:47:53.334Z,9.8
2022-07-30T11:48:53.378Z,7
2022-07-30T11:49:53.335Z,10.4
2022-07-30T11:50:53.338Z,11.5
2022-07-30T11:51:53.342Z,9.3
2022-07-30T11:52:53.335Z,5.9
2022-07-30T11:53:53.334Z,3.2
2022-07-30T11:54:53.341Z,1.3
2022-07-30T11:55:53.354Z,0
2022-07-30T11:56:53.339Z,0
2022-07-30T11:57:53.353Z,0
2022-07-30T11:58:53.345Z,2.2
2022-07-30T11:59:53.347Z,9
2022-07-30T12:00:53.343Z,6.9
2022-07-30T12:01:53.355Z,3.3000000000000003
2022-07-30T12:02:53.348Z,2.8000000000000003
2022-07-30T12:03:53.347Z,4.3
2022-07-30T12:04:53.346Z,3.4000000000000004
2022-07-30T12:05:53.602Z,3.6
2022-07-30T12:06:53.350Z,6.7
2022-07-30T12:07:53.357Z,6.6000000000000005
2022-07-30T12:08:57.976Z,8.3
2022-07-30T12:09:53.347Z,5.1000000000000005
2022-07-30T12:10:53.354Z,3.9000000000000004
2022-07-30T12:11:53.359Z,8.9
2022-07-30T12:12:53.360Z,5.7
2022-07-30T12:13:53.354Z,2.2
2022-07-30T12:14:53.375Z,1.5
2022-07-30T12:15:53.360Z,7.1000000000000005
2022-07-30T12:16:53.399Z,1.3
2022-07-30T12:18:05.598Z,6.5
2022-07-30T12:18:53.350Z,5.9
2022-07-30T12:19:53.357Z,1.9000000000000001
2022-07-30T12:20:53.357Z,6.300000000000001
2022-07-30T12:21:53.875Z,5.300000000000001
2022-07-30T12:22:53.356Z,2.4000000000000004
2022-07-30T12:23:53.363Z,8
2022-07-30T12:24:53.359Z,3.7
2022-07-30T12:25:53.350Z,6.5
2022-07-30T12:26:53.353Z,10.200000000000001
2022-07-30T12:27:53.346Z,6.7
2022-07-30T12:28:53.357Z,5.800000000000001
2022-07-30T12:29:53.361Z,5.2
2022-07-30T12:30:53.354Z,7.6000000000000005
2022-07-30T12:31:53.358Z,3.5
2022-07-30T12:32:53.361Z,8
2022-07-30T12:33:53.362Z,3.4000000000000004
2022-07-30T12:34:53.366Z,4.5
2022-07-30T12:35:53.352Z,14.200000000000001
2022-07-30T12:36:53.364Z,9
2022-07-30T12:37:53.354Z,4.6000000000000005
2022-07-30T12:38:53.363Z,0
2022-07-30T12:39:53.363Z,4.5
2022-07-30T12:40:53.358Z,6.300000000000001
2022-07-30T12:41:53.356Z,8.5
2022-07-30T12:42:53.362Z,4.7
2022-07-30T12:43:53.366Z,0.5
2022-07-30T12:44:53.360Z,1.8
2022-07-30T12:45:54.334Z,6.7
2022-07-30T12:46:53.357Z,5.5
2022-07-30T12:47:53.379Z,9.9
2022-07-30T12:48:53.398Z,11.3
2022-07-30T12:49:53.642Z,5.2
2022-07-30T12:50:53.369Z,5.300000000000001
2022-07-30T12:51:57.515Z,6
2022-07-30T12:52:53.374Z,4.6000000000000005
2022-07-30T12:53:53.369Z,11.8
2022-07-30T12:54:53.370Z,3.5
2022-07-30T12:55:53.377Z,6.2
2022-07-30T12:56:53.372Z,3.6
2022-07-30T12:57:53.375Z,1.7000000000000002
2022-07-30T12:58:53.379Z,6.7
2022-07-30T12:59:53.388Z,4.3
2022-07-30T13:00:53.386Z,5.1000000000000005
2022-07-30T13:01:53.451Z,4
2022-07-30T13:02:53.379Z,1.1
2022-07-30T13:03:53.384Z,1
2022-07-30T13:04:54.805Z,3.6
2022-07-30T13:05:55.188Z,3.7
2022-07-30T13:06:53.392Z,5.7
2022-07-30T13:07:53.400Z,3
2022-07-30T13:08:53.385Z,10.600000000000001
2022-07-30T13:09:53.399Z,7.6000000000000005
2022-07-30T13:10:53.386Z,4.3
2022-07-30T13:11:53.400Z,2.4000000000000004
2022-07-30T13:12:53.398Z,8.8
2022-07-30T13:13:53.399Z,9
2022-07-30T13:14:53.398Z,3.5
2022-07-30T13:15:54.190Z,5.800000000000001
2022-07-30T13:16:53.403Z,9
2022-07-30T13:17:53.408Z,9
2022-07-30T13:18:53.408Z,13.200000000000001
2022-07-30T13:19:53.406Z,7.1000000000000005
2022-07-30T13:20:53.400Z,12
2022-07-30T13:21:53.395Z,15.200000000000001
2022-07-30T13:22:53.400Z,7.2
2022-07-30T13:23:53.408Z,3.5
2022-07-30T13:24:53.415Z,6.1000000000000005
2022-07-30T13:25:53.413Z,6.1000000000000005
2022-07-30T13:26:53.416Z,6.300000000000001
2022-07-30T13:27:53.414Z,4
2022-07-30T13:28:53.409Z,8.1
2022-07-30T13:29:53.409Z,6.300000000000001
2022-07-30T13:30:53.415Z,8.1
2022-07-30T13:31:53.421Z,5.300000000000001
2022-07-30T13:32:53.413Z,5.800000000000001
2022-07-30T13:33:53.423Z,6
2022-07-30T13:34:53.413Z,8.200000000000001
2022-07-30T13:35:53.421Z,4.800000000000001
2022-07-30T13:36:53.430Z,11.200000000000001
2022-07-30T13:37:53.416Z,5.1000000000000005